This is the latest recevied weather packets stored in our database for station/object KE8GJZ-1. If no packets are shown the sender has not sent any weather packets the latest 10 day(s).
| Time | Temp. | Humidity | Pressure | Rain* | Wind** | Luminosity | Snow |
|---|---|---|---|---|---|---|---|
| 1778170813 | 12.78° C | 44% | 1011.3 hPa | 0 mm | - | 130 W/m² | - |
| 1778170509 | 13.89° C | 41% | 1011.4 hPa | 0 mm | - | 206 W/m² | - |
| 1778170206 | 11.67° C | 44% | 1011.5 hPa | 0 mm | - | 839 W/m² | - |
| 1778169902 | 12.78° C | 43% | 1011.5 hPa | 0 mm | - | 147 W/m² | - |
| 1778169597 | 13.89° C | 40% | 1011.2 hPa | 0 mm | - | 244 W/m² | - |
| 1778169294 | 13.33° C | 40% | 1011.3 hPa | 0 mm | - | 758 W/m² | - |
| 1778168991 | 13.89° C | 40% | 1011.3 hPa | 0 mm | - | 188 W/m² | - |
| 1778168688 | 13.89° C | 43% | 1011.3 hPa | 0 mm | - | 738 W/m² | - |
| 1778168384 | 13.89° C | 39% | 1011.3 hPa | 0 mm | - | 646 W/m² | - |
| 1778168082 | 12.78° C | 41% | 1011.5 hPa | 0 mm | - | 786 W/m² | - |
| 1778167778 | 13.89° C | 40% | 1011.2 hPa | 0 mm | - | 750 W/m² | - |
| 1778167474 | 13.33° C | 43% | 1011.3 hPa | 0 mm | - | 752 W/m² | - |
| 1778167170 | 12.78° C | 44% | 1011.3 hPa | 0 mm | - | 751 W/m² | - |
| 1778166867 | 12.78° C | 43% | 1011.3 hPa | 0 mm | - | 228 W/m² | - |
| 1778166564 | 11.67° C | 43% | 1011.2 hPa | 0 mm | - | 693 W/m² | - |
| 1778166261 | 11.67° C | 44% | 1011.1 hPa | 0 mm | - | 131 W/m² | - |
| 1778165957 | 12.78° C | 42% | 1011.3 hPa | 0 mm | - | 164 W/m² | - |
| 1778165653 | 12.22° C | 45% | 1011.3 hPa | 0 mm | - | 689 W/m² | - |
| 1778165350 | 12.22° C | 46% | 1011.1 hPa | 0 mm | - | 596 W/m² | - |
| 1778165047 | 12.22° C | 43% | 1011.2 hPa | 0 mm | - | 356 W/m² | - |
| 1778164744 | 12.22° C | 44% | 1011.2 hPa | 0 mm | - | 337 W/m² | - |
| 1778164441 | 12.22° C | 46% | 1011.3 hPa | 0 mm | - | 560 W/m² | - |
| 1778164138 | 12.22° C | 46% | 1011.3 hPa | 0 mm | - | 555 W/m² | - |
| 1778163833 | 11.67° C | 47% | 1011.3 hPa | 0 mm | - | 530 W/m² | - |
| 1778163531 | 11.67° C | 47% | 1011.4 hPa | 0 mm | - | 511 W/m² | - |
* Rain latest hour (hover to see other rain measurements)
** Current wind speed in m/s (hover to see current wind gust speed)